Time;durP1;ratioP1;P1;durP2;ratioP2;P2;SDS_P1;SDS_P2;PMS_P1;PMS_P2;Temp;Humidity;BMP_temperature;BMP_pressure;BME280_temperature;BME280_humidity;BME280_pressure;Samples;Min_cycle;Max_cycle;Signal;HPM_P1;HPM_P2
2023/04/27 00:02:07;;;;;;;;;;;6.20;74.70;;;;;;5004782;28;19925;-83
2023/04/27 00:04:33;;;;;;;;;;;6.10;75.20;;;;;;5013701;28;20001;-84
2023/04/27 00:06:58;;;;;;;;;;;6.10;75.20;;;;;;5010326;28;19913;-84
2023/04/27 00:09:24;;;;;;;;;;;6.10;75.60;;;;;;5003537;28;19945;-84
2023/04/27 00:11:49;;;;;;;;;;;6.10;75.50;;;;;;5022008;28;19914;-83
2023/04/27 00:14:15;;;;;;;;;;;6.10;74.90;;;;;;5034090;28;20408;-84
2023/04/27 00:16:41;;;;;;;;;;;6.00;74.50;;;;;;4998193;28;19913;-84
2023/04/27 00:19:07;;;;;;;;;;;6.00;73.90;;;;;;5013468;28;20316;-83
2023/04/27 00:21:33;;;;;;;;;;;6.00;74.00;;;;;;5019105;28;19921;-84
2023/04/27 00:23:59;;;;;;;;;;;6.00;74.30;;;;;;5012708;28;19917;-83
2023/04/27 00:26:25;;;;;;;;;;;6.00;75.20;;;;;;5010199;28;19992;-84
2023/04/27 00:28:51;;;;;;;;;;;6.00;74.60;;;;;;5032708;28;20068;-83
2023/04/27 00:31:16;;;;;;;;;;;6.00;74.40;;;;;;5002261;28;20066;-82
2023/04/27 00:33:42;;;;;;;;;;;6.00;75.10;;;;;;5022641;28;19920;-83
2023/04/27 00:36:07;;;;;;;;;;;5.90;75.30;;;;;;5015709;28;19924;-82
2023/04/27 00:38:33;;;;;;;;;;;5.80;75.30;;;;;;5010715;28;19917;-82
2023/04/27 00:41:05;;;;;;;;;;;5.70;75.40;;;;;;5010591;28;20292;-83
2023/04/27 00:43:31;;;;;;;;;;;5.70;75.80;;;;;;5013317;28;20447;-83
2023/04/27 00:45:57;;;;;;;;;;;5.70;76.30;;;;;;5015380;28;19950;-84
2023/04/27 00:48:23;;;;;;;;;;;5.70;76.00;;;;;;4998013;28;20397;-82
2023/04/27 00:50:48;;;;;;;;;;;5.70;75.50;;;;;;5018026;28;19920;-81
2023/04/27 00:53:14;;;;;;;;;;;5.70;75.60;;;;;;5013711;28;19939;-82
2023/04/27 00:55:39;;;;;;;;;;;5.60;76.20;;;;;;5021378;28;19960;-83
2023/04/27 00:58:05;;;;;;;;;;;5.50;76.40;;;;;;5017444;28;19928;-83
2023/04/27 01:00:31;;;;;;;;;;;5.40;76.30;;;;;;5016628;28;19937;-84
2023/04/27 01:02:56;;;;;;;;;;;5.30;76.70;;;;;;5021456;28;19971;-83
2023/04/27 01:05:23;;;;;;;;;;;5.30;76.50;;;;;;5011443;28;20353;-83
2023/04/27 01:07:48;;;;;;;;;;;5.30;76.90;;;;;;5016271;28;20073;-82
2023/04/27 01:10:14;;;;;;;;;;;5.30;77.40;;;;;;5013638;28;19978;-82
2023/04/27 01:12:40;;;;;;;;;;;5.30;77.30;;;;;;4999302;28;19924;-83
2023/04/27 01:15:06;;;;;;;;;;;5.30;77.00;;;;;;5002340;28;19928;-83
2023/04/27 01:17:31;;;;;;;;;;;5.30;77.50;;;;;;5001845;28;19913;-82
2023/04/27 01:19:58;;;;;;;;;;;5.20;77.20;;;;;;5003297;28;19918;-82
2023/04/27 01:22:24;;;;;;;;;;;5.10;77.10;;;;;;5012186;28;19913;-83
2023/04/27 01:24:49;;;;;;;;;;;5.20;77.20;;;;;;5012335;28;19921;-82
2023/04/27 01:27:15;;;;;;;;;;;5.20;78.00;;;;;;5007478;28;19956;-83
2023/04/27 01:29:40;;;;;;;;;;;5.10;78.40;;;;;;5010937;28;19944;-83
2023/04/27 01:32:06;;;;;;;;;;;5.30;78.40;;;;;;5018388;28;19913;-83
2023/04/27 01:34:31;;;;;;;;;;;5.20;78.20;;;;;;5015350;28;20494;-84
2023/04/27 01:36:57;;;;;;;;;;;5.20;77.30;;;;;;5023401;28;19925;-83
2023/04/27 01:39:22;;;;;;;;;;;5.20;77.00;;;;;;5014785;28;19921;-82
2023/04/27 01:41:48;;;;;;;;;;;5.20;77.30;;;;;;5013994;28;19931;-83
2023/04/27 01:44:14;;;;;;;;;;;5.10;77.60;;;;;;5027270;28;19921;-83
2023/04/27 01:46:39;;;;;;;;;;;5.00;78.00;;;;;;5015440;28;19940;-82
2023/04/27 01:49:05;;;;;;;;;;;4.90;77.90;;;;;;5008793;28;19921;-83
2023/04/27 01:51:31;;;;;;;;;;;4.90;77.80;;;;;;5022487;28;19913;-82
2023/04/27 01:53:57;;;;;;;;;;;4.90;77.90;;;;;;5013810;28;19914;-82
2023/04/27 01:56:22;;;;;;;;;;;4.90;78.00;;;;;;5011081;28;19913;-83
2023/04/27 01:58:48;;;;;;;;;;;4.90;78.20;;;;;;5022943;28;19925;-83
2023/04/27 02:01:13;;;;;;;;;;;4.80;77.90;;;;;;4999204;28;20004;-83
2023/04/27 02:03:39;;;;;;;;;;;4.80;78.30;;;;;;5001156;28;19968;-83
2023/04/27 02:06:04;;;;;;;;;;;4.70;78.50;;;;;;5004252;28;19913;-83
2023/04/27 02:08:30;;;;;;;;;;;4.70;78.50;;;;;;4998556;28;19994;-83
2023/04/27 02:10:55;;;;;;;;;;;4.70;78.50;;;;;;4999789;28;19922;-82
2023/04/27 02:13:21;;;;;;;;;;;4.70;78.50;;;;;;5021787;28;20301;-82
2023/04/27 02:15:47;;;;;;;;;;;4.70;78.50;;;;;;5020284;28;19913;-84
2023/04/27 02:18:14;;;;;;;;;;;4.70;78.60;;;;;;5006885;28;19913;-82
2023/04/27 02:20:40;;;;;;;;;;;4.60;78.90;;;;;;5014228;28;19921;-83
2023/04/27 02:23:05;;;;;;;;;;;4.60;79.20;;;;;;5006588;28;20234;-82
2023/04/27 02:25:31;;;;;;;;;;;4.60;78.90;;;;;;5009178;28;19914;-82
2023/04/27 02:27:56;;;;;;;;;;;4.60;79.20;;;;;;5018743;28;19913;-83
2023/04/27 02:30:22;;;;;;;;;;;4.60;79.30;;;;;;5019584;28;19933;-83
2023/04/27 02:32:47;;;;;;;;;;;4.50;78.80;;;;;;5015350;28;19921;-84
2023/04/27 02:35:13;;;;;;;;;;;4.50;78.50;;;;;;5004417;28;20386;-83
2023/04/27 02:37:38;;;;;;;;;;;4.40;79.00;;;;;;5008364;28;19913;-83
2023/04/27 02:40:08;;;;;;;;;;;4.40;79.00;;;;;;5013427;28;20048;-83
2023/04/27 02:42:33;;;;;;;;;;;4.40;79.30;;;;;;5023032;28;19913;-83
2023/04/27 02:44:59;;;;;;;;;;;4.30;79.60;;;;;;5015990;28;19930;-83
2023/04/27 02:47:24;;;;;;;;;;;4.40;79.60;;;;;;5014661;28;19921;-83
2023/04/27 02:49:50;;;;;;;;;;;4.30;79.40;;;;;;5018679;28;19924;-84
2023/04/27 02:52:15;;;;;;;;;;;4.40;79.40;;;;;;5017210;28;19918;-83
2023/04/27 02:54:41;;;;;;;;;;;4.40;79.20;;;;;;5018167;28;19925;-84
2023/04/27 02:57:06;;;;;;;;;;;4.40;79.60;;;;;;5013137;28;20007;-83
2023/04/27 02:59:32;;;;;;;;;;;4.40;79.60;;;;;;5027021;28;19940;-83
2023/04/27 03:01:57;;;;;;;;;;;4.30;80.40;;;;;;5022816;28;19921;-83
2023/04/27 03:04:23;;;;;;;;;;;4.30;80.20;;;;;;5013914;28;20368;-83
2023/04/27 03:06:48;;;;;;;;;;;4.20;80.10;;;;;;5021251;28;19963;-83
2023/04/27 03:09:14;;;;;;;;;;;4.20;80.20;;;;;;5007404;28;19918;-83
2023/04/27 03:11:39;;;;;;;;;;;4.20;80.30;;;;;;5017250;28;19914;-82
2023/04/27 03:14:05;;;;;;;;;;;4.10;80.60;;;;;;5023858;28;19914;-83
2023/04/27 03:16:31;;;;;;;;;;;4.10;80.40;;;;;;5016542;28;19921;-83
2023/04/27 03:18:57;;;;;;;;;;;4.10;80.70;;;;;;5011025;28;20000;-83
2023/04/27 03:21:22;;;;;;;;;;;4.10;80.40;;;;;;5018543;28;19952;-84
2023/04/27 03:23:48;;;;;;;;;;;4.00;80.70;;;;;;5019153;28;19924;-82
2023/04/27 03:26:13;;;;;;;;;;;4.00;80.60;;;;;;5022793;28;19913;-84
2023/04/27 03:28:39;;;;;;;;;;;4.10;80.80;;;;;;5023648;28;19914;-83
2023/04/27 03:31:08;;;;;;;;;;;4.10;80.50;;;;;;5018424;28;19917;-84
2023/04/27 03:33:35;;;;;;;;;;;4.10;80.20;;;;;;5015938;28;20300;-83
2023/04/27 03:36:01;;;;;;;;;;;4.10;80.50;;;;;;5006183;28;19918;-84
2023/04/27 03:38:27;;;;;;;;;;;4.00;80.30;;;;;;5009585;28;19920;-82
2023/04/27 03:40:53;;;;;;;;;;;3.90;80.50;;;;;;5000535;28;19914;-83
2023/04/27 03:43:18;;;;;;;;;;;3.90;80.10;;;;;;5014112;28;19956;-83
2023/04/27 03:45:44;;;;;;;;;;;3.90;79.80;;;;;;5018423;28;19918;-82
2023/04/27 03:48:10;;;;;;;;;;;3.80;79.80;;;;;;5011142;28;20495;-83
2023/04/27 03:50:35;;;;;;;;;;;3.90;80.00;;;;;;5021164;28;19944;-83
2023/04/27 03:53:00;;;;;;;;;;;3.80;80.30;;;;;;5018389;28;19914;-82
2023/04/27 03:55:26;;;;;;;;;;;3.80;80.50;;;;;;5018205;28;21950;-83
2023/04/27 03:57:52;;;;;;;;;;;3.80;80.60;;;;;;5012358;28;19921;-83
2023/04/27 04:00:17;;;;;;;;;;;3.90;80.30;;;;;;5016904;28;20296;-82
2023/04/27 04:02:43;;;;;;;;;;;4.00;80.30;;;;;;5014565;28;19922;-83
2023/04/27 04:05:09;;;;;;;;;;;3.90;80.20;;;;;;5017025;28;20391;-81
2023/04/27 04:07:35;;;;;;;;;;;3.80;80.40;;;;;;5027400;28;19913;-82
2023/04/27 04:10:01;;;;;;;;;;;3.90;80.20;;;;;;5005990;28;19977;-82
2023/04/27 04:12:26;;;;;;;;;;;3.90;80.70;;;;;;4998981;28;19981;-81
2023/04/27 04:14:52;;;;;;;;;;;3.90;80.80;;;;;;5004641;28;20354;-83
2023/04/27 04:17:17;;;;;;;;;;;3.80;80.60;;;;;;5006074;28;19914;-83
2023/04/27 04:19:43;;;;;;;;;;;3.90;80.60;;;;;;5015816;28;19922;-83
2023/04/27 04:22:08;;;;;;;;;;;3.90;80.30;;;;;;5015990;28;19914;-83
2023/04/27 04:24:34;;;;;;;;;;;3.80;80.50;;;;;;5008972;28;19967;-82
2023/04/27 04:26:59;;;;;;;;;;;3.80;80.60;;;;;;5003248;28;19914;-83
2023/04/27 04:29:25;;;;;;;;;;;3.90;81.20;;;;;;5010773;28;20382;-82
2023/04/27 04:31:50;;;;;;;;;;;3.90;80.70;;;;;;5006985;28;20403;-82
2023/04/27 04:34:16;;;;;;;;;;;3.90;81.00;;;;;;5012244;28;20012;-83
2023/04/27 04:36:42;;;;;;;;;;;3.90;81.00;;;;;;5010287;28;19957;-84
2023/04/27 04:39:07;;;;;;;;;;;4.00;80.90;;;;;;5014328;28;19968;-83
2023/04/27 04:41:32;;;;;;;;;;;4.00;80.70;;;;;;5004750;28;20408;-83
2023/04/27 04:43:58;;;;;;;;;;;4.10;81.00;;;;;;5004598;28;19922;-82
2023/04/27 04:46:24;;;;;;;;;;;4.00;81.30;;;;;;5009811;28;19909;-82
2023/04/27 04:48:50;;;;;;;;;;;4.10;81.50;;;;;;5013990;28;19946;-83
2023/04/27 04:51:16;;;;;;;;;;;4.20;81.30;;;;;;5012839;28;19926;-83
2023/04/27 04:53:41;;;;;;;;;;;4.30;81.20;;;;;;5012615;28;19913;-82
2023/04/27 04:56:07;;;;;;;;;;;4.30;80.80;;;;;;4996119;28;20377;-82
2023/04/27 04:58:33;;;;;;;;;;;4.30;81.20;;;;;;5026141;28;19968;-81
2023/04/27 05:00:58;;;;;;;;;;;4.40;81.10;;;;;;5011352;28;19936;-82
2023/04/27 05:03:24;;;;;;;;;;;4.40;81.00;;;;;;5007978;28;19918;-85
2023/04/27 05:05:50;;;;;;;;;;;4.40;80.90;;;;;;5014469;28;19924;-83
2023/04/27 05:08:16;;;;;;;;;;;4.60;80.60;;;;;;5004275;28;20324;-82
2023/04/27 05:14:23;;;;;;;;;;;5.00;79.90;;;;;;4940805;28;19923;-84
2023/04/27 05:16:50;;;;;;;;;;;5.20;79.50;;;;;;4971825;28;20135;-83
2023/04/27 05:19:19;;;;;;;;;;;5.40;79.00;;;;;;4947710;28;19929;-81
2023/04/27 05:21:45;;;;;;;;;;;5.40;78.50;;;;;;4971178;28;19956;-82
2023/04/27 05:24:11;;;;;;;;;;;5.50;78.90;;;;;;5005701;28;19913;-80
2023/04/27 05:26:37;;;;;;;;;;;5.50;79.30;;;;;;5005084;28;19946;-84
2023/04/27 05:29:03;;;;;;;;;;;5.50;78.90;;;;;;5009145;28;20345;-84
2023/04/27 05:31:29;;;;;;;;;;;5.50;79.20;;;;;;5009227;28;19921;-83
2023/04/27 05:33:55;;;;;;;;;;;5.50;78.50;;;;;;5003645;28;20400;-82
2023/04/27 05:36:21;;;;;;;;;;;5.60;78.30;;;;;;5003904;28;19953;-82
2023/04/27 05:38:46;;;;;;;;;;;5.60;77.60;;;;;;5010343;28;19956;-81
2023/04/27 05:41:15;;;;;;;;;;;5.60;77.20;;;;;;5002974;28;19956;-83
2023/04/27 05:43:40;;;;;;;;;;;6.00;76.70;;;;;;5034039;22;19953;-81
2023/04/27 05:46:06;;;;;;;;;;;6.50;75.80;;;;;;5004023;28;19965;-85
2023/04/27 05:48:31;;;;;;;;;;;7.00;74.00;;;;;;4988009;28;19918;-85
2023/04/27 05:51:00;;;;;;;;;;;7.50;72.40;;;;;;4986631;28;19926;-85
2023/04/27 05:53:26;;;;;;;;;;;7.90;71.40;;;;;;4984465;28;20000;-84
2023/04/27 05:55:51;;;;;;;;;;;8.30;69.70;;;;;;4987766;28;19988;-85
2023/04/27 05:58:17;;;;;;;;;;;8.70;68.20;;;;;;4993435;28;20021;-84
2023/04/27 06:00:42;;;;;;;;;;;9.10;67.30;;;;;;4981644;28;19917;-85
2023/04/27 06:03:08;;;;;;;;;;;8.80;66.60;;;;;;4984963;28;19910;-84
2023/04/27 06:05:33;;;;;;;;;;;8.60;69.00;;;;;;4995393;28;20329;-84
2023/04/27 06:07:59;;;;;;;;;;;9.20;68.40;;;;;;4992354;28;19936;-85
2023/04/27 06:10:24;;;;;;;;;;;9.80;66.40;;;;;;4991349;28;19917;-85
2023/04/27 06:12:50;;;;;;;;;;;9.90;64.40;;;;;;4983966;28;19914;-86
2023/04/27 06:15:15;;;;;;;;;;;9.90;64.10;;;;;;4990522;28;19956;-84
2023/04/27 06:17:42;;;;;;;;;;;9.80;64.20;;;;;;4991277;28;19976;-85
2023/04/27 06:20:08;;;;;;;;;;;9.60;65.10;;;;;;4992763;28;19910;-85
2023/04/27 06:22:37;;;;;;;;;;;9.10;65.50;;;;;;4992853;28;19917;-85
2023/04/27 06:25:03;;;;;;;;;;;8.50;66.80;;;;;;4992861;28;19996;-85
2023/04/27 06:27:28;;;;;;;;;;;7.90;68.20;;;;;;4986124;28;19986;-87
2023/04/27 06:29:54;;;;;;;;;;;7.60;67.50;;;;;;4989706;28;20418;-88
2023/04/27 06:32:19;;;;;;;;;;;7.30;67.80;;;;;;4990492;28;19925;-88
2023/04/27 06:34:45;;;;;;;;;;;7.20;68.10;;;;;;4990624;28;19967;-87
2023/04/27 06:37:14;;;;;;;;;;;7.00;68.50;;;;;;4993525;28;19984;-89
2023/04/27 06:39:42;;;;;;;;;;;7.00;68.00;;;;;;4984226;28;19940;-88
2023/04/27 06:42:07;;;;;;;;;;;7.00;67.70;;;;;;4991874;28;19925;-87
2023/04/27 06:44:33;;;;;;;;;;;7.00;66.40;;;;;;4989434;28;20344;-91
2023/04/27 06:46:58;;;;;;;;;;;7.00;66.50;;;;;;4988404;28;19914;-88
2023/04/27 06:49:24;;;;;;;;;;;7.00;66.10;;;;;;4991933;28;19918;-89
2023/04/27 06:51:55;;;;;;;;;;;7.00;67.30;;;;;;4985247;28;19977;-89
2023/04/27 06:54:20;;;;;;;;;;;7.10;67.60;;;;;;5000638;28;19934;-88
2023/04/27 06:56:46;;;;;;;;;;;7.00;65.00;;;;;;4998800;28;19914;-87
2023/04/27 06:59:12;;;;;;;;;;;7.00;66.20;;;;;;4991710;28;20052;-91
2023/04/27 07:01:38;;;;;;;;;;;7.10;65.30;;;;;;4991559;28;20373;-90
2023/04/27 07:04:09;;;;;;;;;;;7.10;66.60;;;;;;4993251;28;19935;-88
2023/04/27 07:06:35;;;;;;;;;;;7.20;64.70;;;;;;4988140;28;19910;-89
2023/04/27 07:09:09;;;;;;;;;;;7.30;63.60;;;;;;4996153;28;20063;-88
2023/04/27 07:11:35;;;;;;;;;;;7.20;64.50;;;;;;4995457;28;20371;-90
2023/04/27 07:14:00;;;;;;;;;;;7.40;63.80;;;;;;4996132;28;19952;-89
2023/04/27 07:16:26;;;;;;;;;;;7.40;62.70;;;;;;4994249;28;19918;-89
2023/04/27 07:18:53;;;;;;;;;;;7.50;60.20;;;;;;4987944;28;19917;-89
2023/04/27 07:21:19;;;;;;;;;;;7.50;62.50;;;;;;4983107;28;19932;-89
2023/04/27 07:23:45;;;;;;;;;;;7.50;61.20;;;;;;4988176;28;19910;-89
2023/04/27 07:26:11;;;;;;;;;;;7.60;63.00;;;;;;4995100;28;19910;-90
2023/04/27 07:28:38;;;;;;;;;;;7.60;60.80;;;;;;4997370;28;19916;-89
2023/04/27 07:31:04;;;;;;;;;;;7.70;62.90;;;;;;5014384;28;19925;-89
2023/04/27 07:33:29;;;;;;;;;;;7.70;62.50;;;;;;5011134;28;20137;-88
2023/04/27 07:35:55;;;;;;;;;;;7.70;61.80;;;;;;4988680;28;20359;-83
2023/04/27 07:38:21;;;;;;;;;;;7.90;63.30;;;;;;4989211;28;19917;-86
2023/04/27 07:40:46;;;;;;;;;;;7.90;59.90;;;;;;4987827;28;19929;-86
2023/04/27 07:43:12;;;;;;;;;;;7.90;60.80;;;;;;4997081;28;19944;-86
2023/04/27 07:45:40;;;;;;;;;;;7.90;62.60;;;;;;4996364;28;19937;-85
2023/04/27 07:48:05;;;;;;;;;;;8.00;60.90;;;;;;4993996;28;19913;-84
2023/04/27 07:50:31;;;;;;;;;;;8.00;60.60;;;;;;4976861;28;19929;-84
2023/04/27 07:52:57;;;;;;;;;;;8.00;60.80;;;;;;4994578;28;20380;-85
2023/04/27 07:55:23;;;;;;;;;;;8.10;60.80;;;;;;4993420;28;20011;-84
2023/04/27 07:57:49;;;;;;;;;;;8.20;60.80;;;;;;4992937;28;19921;-85
2023/04/27 08:00:15;;;;;;;;;;;8.20;59.80;;;;;;4992702;28;20607;-85
2023/04/27 08:02:40;;;;;;;;;;;8.10;59.80;;;;;;4993113;28;19949;-85
2023/04/27 08:05:06;;;;;;;;;;;8.10;59.90;;;;;;4991875;28;19969;-86
2023/04/27 08:07:32;;;;;;;;;;;8.30;60.90;;;;;;4988174;28;19928;-86
2023/04/27 08:09:58;;;;;;;;;;;8.40;60.10;;;;;;4993653;28;19949;-86
2023/04/27 08:12:23;;;;;;;;;;;8.40;59.60;;;;;;4993257;28;19917;-86
2023/04/27 08:14:49;;;;;;;;;;;8.50;59.80;;;;;;4994279;28;19921;-87
2023/04/27 08:17:14;;;;;;;;;;;8.50;58.00;;;;;;4989431;28;20409;-86
2023/04/27 08:19:39;;;;;;;;;;;8.50;58.20;;;;;;4996055;28;19929;-84
2023/04/27 08:22:05;;;;;;;;;;;8.60;57.70;;;;;;5003620;28;19916;-85
2023/04/27 08:24:31;;;;;;;;;;;8.60;57.30;;;;;;4999045;28;19910;-84
2023/04/27 08:26:56;;;;;;;;;;;8.70;58.10;;;;;;4987610;28;19910;-85
2023/04/27 08:29:25;;;;;;;;;;;8.70;57.70;;;;;;5007721;28;19964;-87
2023/04/27 08:31:53;;;;;;;;;;;8.90;57.00;;;;;;4995899;28;19964;-87
2023/04/27 08:34:18;;;;;;;;;;;8.80;55.90;;;;;;4995212;28;19922;-85
2023/04/27 08:36:44;;;;;;;;;;;9.00;56.30;;;;;;4988313;28;20379;-87
2023/04/27 08:39:09;;;;;;;;;;;9.00;56.30;;;;;;4976771;28;20511;-86
2023/04/27 08:41:35;;;;;;;;;;;9.00;56.50;;;;;;4993315;28;20056;-88
2023/04/27 08:44:00;;;;;;;;;;;9.10;57.10;;;;;;5009329;28;19906;-85
2023/04/27 08:46:26;;;;;;;;;;;9.10;53.50;;;;;;5014545;28;19937;-85
2023/04/27 08:48:52;;;;;;;;;;;9.10;55.60;;;;;;5003544;28;19910;-87
2023/04/27 08:51:18;;;;;;;;;;;9.10;54.10;;;;;;5002477;28;19918;-87
2023/04/27 08:53:46;;;;;;;;;;;9.10;54.40;;;;;;4986039;28;19914;-88
2023/04/27 08:56:12;;;;;;;;;;;9.00;54.90;;;;;;4977584;28;19949;-90
2023/04/27 08:58:40;;;;;;;;;;;9.10;54.50;;;;;;4981505;28;20396;-88
2023/04/27 09:01:08;;;;;;;;;;;9.30;54.60;;;;;;4997550;28;19914;-88
2023/04/27 09:03:35;;;;;;;;;;;9.30;53.70;;;;;;4996946;28;19937;-89
2023/04/27 09:06:05;;;;;;;;;;;9.40;56.50;;;;;;5000858;28;19941;-89
2023/04/27 09:08:42;;;;;;;;;;;9.50;54.60;;;;;;4984423;28;19914;-88
2023/04/27 09:11:29;;;;;;;;;;;9.50;52.10;;;;;;4989391;28;19949;-90
2023/04/27 09:14:16;;;;;;;;;;;9.50;55.20;;;;;;5049184;23;20356;-83
2023/04/27 09:16:41;;;;;;;;;;;9.60;54.90;;;;;;5045755;28;19921;-83
2023/04/27 09:19:07;;;;;;;;;;;9.60;56.20;;;;;;5046868;28;19913;-83
2023/04/27 09:21:32;;;;;;;;;;;9.80;54.00;;;;;;5038431;28;20014;-83
2023/04/27 09:24:08;;;;;;;;;;;9.90;51.80;;;;;;5039004;28;19924;-84
2023/04/27 09:26:33;;;;;;;;;;;9.90;49.50;;;;;;5040415;28;19913;-81
2023/04/27 09:28:59;;;;;;;;;;;9.80;50.40;;;;;;5032301;28;21480;-83
2023/04/27 09:31:32;;;;;;;;;;;9.90;50.50;;;;;;5039911;28;19929;-84
2023/04/27 09:34:03;;;;;;;;;;;9.90;49.90;;;;;;5029818;28;19989;-83
2023/04/27 09:36:29;;;;;;;;;;;9.90;50.30;;;;;;5034341;28;19921;-83
2023/04/27 09:38:55;;;;;;;;;;;10.10;52.90;;;;;;5034326;28;19913;-83
2023/04/27 09:41:20;;;;;;;;;;;10.20;52.50;;;;;;5031818;28;19913;-82
2023/04/27 09:43:46;;;;;;;;;;;10.30;50.70;;;;;;5039349;28;19924;-83
2023/04/27 09:46:12;;;;;;;;;;;10.20;51.40;;;;;;5033347;28;19914;-83
2023/04/27 09:48:38;;;;;;;;;;;10.10;49.00;;;;;;5027761;28;19921;-83
2023/04/27 09:51:04;;;;;;;;;;;10.10;48.30;;;;;;5027335;28;19944;-82
2023/04/27 09:53:36;;;;;;;;;;;10.30;50.30;;;;;;5026118;28;19916;-82
2023/04/27 09:56:08;;;;;;;;;;;10.20;49.50;;;;;;5025881;28;19921;-83
2023/04/27 09:58:57;;;;;;;;;;;10.30;48.70;;;;;;5022477;28;19939;-83
2023/04/27 10:01:33;;;;;;;;;;;10.30;50.00;;;;;;5024209;28;19960;-85
2023/04/27 10:04:31;;;;;;;;;;;10.40;46.80;;;;;;5027541;28;19996;-82
2023/04/27 10:06:58;;;;;;;;;;;10.50;49.10;;;;;;4971680;28;19914;-82
2023/04/27 10:09:25;;;;;;;;;;;10.40;48.80;;;;;;5031621;28;19971;-83
2023/04/27 10:11:51;;;;;;;;;;;10.30;46.60;;;;;;5023536;28;19974;-83
2023/04/27 10:14:17;;;;;;;;;;;10.40;47.50;;;;;;5023600;28;19956;-83
2023/04/27 10:16:45;;;;;;;;;;;10.40;46.60;;;;;;5029931;28;19921;-83
2023/04/27 10:19:11;;;;;;;;;;;10.50;47.70;;;;;;5032073;28;19917;-84
2023/04/27 10:21:37;;;;;;;;;;;10.60;46.70;;;;;;5025539;28;19916;-82
2023/04/27 10:24:12;;;;;;;;;;;10.60;45.20;;;;;;5033395;28;19978;-83
2023/04/27 10:26:45;;;;;;;;;;;10.60;44.20;;;;;;5034741;28;20548;-82
2023/04/27 10:29:11;;;;;;;;;;;10.70;45.10;;;;;;5035463;28;19959;-81
2023/04/27 10:31:42;;;;;;;;;;;10.80;49.10;;;;;;5030492;28;19909;-84
2023/04/27 10:34:08;;;;;;;;;;;10.90;46.50;;;;;;5032090;28;19913;-83
2023/04/27 10:36:35;;;;;;;;;;;11.00;45.80;;;;;;5025143;28;19913;-82
2023/04/27 10:39:02;;;;;;;;;;;11.10;45.50;;;;;;5027048;28;19910;-81
2023/04/27 10:41:32;;;;;;;;;;;11.00;45.30;;;;;;5025881;28;20380;-84
2023/04/27 10:44:12;;;;;;;;;;;10.90;44.10;;;;;;5031098;28;19932;-85
2023/04/27 10:46:48;;;;;;;;;;;10.70;43.70;;;;;;5030195;28;19920;-83
2023/04/27 10:49:15;;;;;;;;;;;10.80;45.20;;;;;;5029723;28;19913;-83
2023/04/27 10:51:40;;;;;;;;;;;10.90;47.60;;;;;;5034884;28;19913;-82
2023/04/27 10:54:07;;;;;;;;;;;11.00;45.90;;;;;;5032530;28;20276;-83
2023/04/27 10:56:32;;;;;;;;;;;11.00;44.20;;;;;;5030977;28;20008;-82
2023/04/27 10:59:02;;;;;;;;;;;11.00;44.00;;;;;;5027022;28;19940;-83
2023/04/27 11:01:28;;;;;;;;;;;11.00;42.50;;;;;;5033711;28;19914;-82
2023/04/27 11:03:58;;;;;;;;;;;11.10;46.70;;;;;;5029378;28;19913;-84
2023/04/27 11:06:23;;;;;;;;;;;11.40;47.80;;;;;;5031206;28;19928;-82
2023/04/27 11:08:49;;;;;;;;;;;11.40;44.90;;;;;;5034437;28;19916;-83
2023/04/27 11:11:16;;;;;;;;;;;11.50;43.80;;;;;;5051107;28;19975;-82
2023/04/27 11:13:42;;;;;;;;;;;11.60;42.60;;;;;;5048989;28;19983;-85
2023/04/27 11:16:07;;;;;;;;;;;11.50;45.90;;;;;;5047302;28;20331;-86
2023/04/27 11:18:35;;;;;;;;;;;11.50;44.80;;;;;;5039486;28;19924;-83
2023/04/27 11:21:11;;;;;;;;;;;11.80;46.00;;;;;;5041948;28;19941;-81
2023/04/27 11:23:38;;;;;;;;;;;11.80;45.30;;;;;;5042861;28;19932;-82
2023/04/27 11:26:14;;;;;;;;;;;12.10;45.10;;;;;;5038037;28;20030;-82
2023/04/27 11:28:43;;;;;;;;;;;12.20;45.00;;;;;;5035769;28;19913;-82
2023/04/27 11:31:09;;;;;;;;;;;12.20;42.30;;;;;;5037352;28;19920;-82
2023/04/27 11:33:35;;;;;;;;;;;12.30;42.40;;;;;;5036866;28;19939;-82
2023/04/27 11:36:00;;;;;;;;;;;12.30;42.00;;;;;;5034916;28;19952;-81
2023/04/27 11:38:32;;;;;;;;;;;12.30;40.20;;;;;;5036170;28;19913;-81
2023/04/27 11:41:02;;;;;;;;;;;12.30;41.30;;;;;;5035231;28;19913;-81
2023/04/27 11:43:28;;;;;;;;;;;12.50;41.10;;;;;;5057532;23;19933;-83
2023/04/27 11:45:54;;;;;;;;;;;12.30;40.00;;;;;;5011012;28;19917;-83
2023/04/27 11:48:21;;;;;;;;;;;12.20;42.10;;;;;;5016121;22;19932;-83
2023/04/27 11:50:47;;;;;;;;;;;12.20;40.30;;;;;;5050374;28;19917;-83
2023/04/27 11:53:13;;;;;;;;;;;12.10;40.80;;;;;;5030689;28;19960;-85
2023/04/27 11:55:40;;;;;;;;;;;12.20;41.70;;;;;;5034416;28;19913;-84
2023/04/27 11:58:06;;;;;;;;;;;12.20;43.60;;;;;;5033169;28;21580;-85
2023/04/27 12:00:31;;;;;;;;;;;12.10;40.90;;;;;;5044410;28;20366;-84
2023/04/27 12:02:57;;;;;;;;;;;12.10;41.10;;;;;;5034650;28;19917;-82
2023/04/27 12:05:22;;;;;;;;;;;12.10;41.70;;;;;;5029768;28;19913;-83
2023/04/27 12:07:48;;;;;;;;;;;12.00;40.90;;;;;;5032702;28;19917;-84
2023/04/27 12:10:13;;;;;;;;;;;12.00;42.10;;;;;;5031372;28;19996;-83
2023/04/27 12:12:39;;;;;;;;;;;12.20;41.80;;;;;;5028721;28;19960;-83
2023/04/27 12:15:05;;;;;;;;;;;12.30;42.50;;;;;;5048610;28;20185;-84
2023/04/27 12:17:31;;;;;;;;;;;12.30;39.90;;;;;;5057172;28;19976;-84
2023/04/27 12:19:57;;;;;;;;;;;12.30;41.30;;;;;;5047544;28;19950;-84
2023/04/27 12:22:22;;;;;;;;;;;12.60;39.90;;;;;;5055024;28;20049;-84
2023/04/27 12:24:48;;;;;;;;;;;12.60;43.10;;;;;;5040736;28;20438;-84
2023/04/27 12:27:13;;;;;;;;;;;12.60;42.40;;;;;;5039460;28;19959;-84
2023/04/27 12:29:39;;;;;;;;;;;12.80;43.90;;;;;;5036422;28;19971;-84
2023/04/27 12:32:04;;;;;;;;;;;12.90;43.30;;;;;;5031350;28;20330;-86
2023/04/27 12:34:30;;;;;;;;;;;12.80;40.80;;;;;;5036229;28;19909;-84
2023/04/27 12:36:56;;;;;;;;;;;12.80;38.40;;;;;;5032739;28;19921;-92
2023/04/27 12:39:24;;;;;;;;;;;12.60;42.10;;;;;;5030446;28;20004;-84
2023/04/27 12:41:49;;;;;;;;;;;12.60;40.80;;;;;;5033643;28;19910;-83
2023/04/27 12:44:16;;;;;;;;;;;12.80;40.20;;;;;;5023364;28;19921;-83
2023/04/27 12:46:42;;;;;;;;;;;12.70;39.70;;;;;;5041189;28;19916;-84
2023/04/27 12:49:08;;;;;;;;;;;12.80;40.90;;;;;;5054136;28;20325;-84
2023/04/27 12:51:34;;;;;;;;;;;12.80;38.60;;;;;;5054375;28;19919;-84
2023/04/27 12:54:00;;;;;;;;;;;12.90;39.20;;;;;;5054564;28;19915;-84
2023/04/27 12:56:29;;;;;;;;;;;13.00;38.90;;;;;;5036561;28;19925;-84
2023/04/27 12:58:54;;;;;;;;;;;13.00;39.50;;;;;;5030455;28;20343;-84
2023/04/27 13:01:23;;;;;;;;;;;12.90;38.50;;;;;;5034695;28;19913;-84
2023/04/27 13:03:53;;;;;;;;;;;13.10;37.70;;;;;;5047796;28;20004;-83
2023/04/27 13:06:19;;;;;;;;;;;13.00;39.10;;;;;;5033559;28;19909;-84
2023/04/27 13:08:45;;;;;;;;;;;13.00;40.30;;;;;;5032620;28;19913;-84
2023/04/27 13:11:10;;;;;;;;;;;12.80;41.30;;;;;;5033426;28;19920;-83
2023/04/27 13:13:36;;;;;;;;;;;12.80;43.90;;;;;;5034359;28;19909;-84
2023/04/27 13:16:03;;;;;;;;;;;12.90;39.70;;;;;;5030504;28;19919;-84
2023/04/27 13:18:29;;;;;;;;;;;12.90;39.50;;;;;;5028205;28;19964;-83
2023/04/27 13:20:55;;;;;;;;;;;12.90;40.60;;;;;;5050911;28;19908;-83
2023/04/27 13:23:21;;;;;;;;;;;12.90;38.90;;;;;;5032202;28;19909;-83
2023/04/27 13:25:47;;;;;;;;;;;13.00;37.20;;;;;;5032193;28;19909;-84
2023/04/27 13:28:12;;;;;;;;;;;13.10;38.40;;;;;;5030979;28;19916;-83
2023/04/27 13:30:38;;;;;;;;;;;13.10;37.70;;;;;;5031194;28;19917;-82
2023/04/27 13:33:03;;;;;;;;;;;13.30;38.20;;;;;;5029184;28;19917;-83
2023/04/27 13:35:28;;;;;;;;;;;13.10;39.00;;;;;;5024967;28;19920;-84
2023/04/27 13:37:54;;;;;;;;;;;13.00;37.20;;;;;;5041139;28;20252;-84
2023/04/27 13:40:20;;;;;;;;;;;13.10;37.30;;;;;;5030276;28;20007;-83
2023/04/27 13:42:46;;;;;;;;;;;13.10;37.90;;;;;;5015410;28;20358;-84
2023/04/27 13:45:11;;;;;;;;;;;13.30;37.00;;;;;;5022283;28;19913;-83
2023/04/27 13:47:38;;;;;;;;;;;13.50;36.90;;;;;;5023190;28;19917;-83
2023/04/27 13:50:08;;;;;;;;;;;13.30;37.00;;;;;;5021128;28;19952;-84
2023/04/27 13:52:34;;;;;;;;;;;13.10;37.40;;;;;;5039770;28;19967;-83
2023/04/27 13:55:00;;;;;;;;;;;13.30;37.40;;;;;;5048976;28;19968;-84
2023/04/27 13:57:26;;;;;;;;;;;13.20;37.30;;;;;;5041583;28;19959;-83
2023/04/27 13:59:51;;;;;;;;;;;13.10;39.50;;;;;;5024869;28;19913;-83
2023/04/27 14:02:17;;;;;;;;;;;13.10;38.70;;;;;;5021867;28;19971;-83
2023/04/27 14:04:42;;;;;;;;;;;13.10;38.90;;;;;;5029585;28;19909;-83
2023/04/27 14:07:08;;;;;;;;;;;13.30;39.30;;;;;;5030018;28;19921;-83
2023/04/27 14:09:33;;;;;;;;;;;13.30;39.20;;;;;;5049976;28;19952;-83
2023/04/27 14:11:59;;;;;;;;;;;13.20;39.20;;;;;;5023847;28;19916;-83
2023/04/27 14:14:24;;;;;;;;;;;13.30;40.90;;;;;;5034731;28;19917;-84
2023/04/27 14:16:51;;;;;;;;;;;13.40;42.40;;;;;;5052813;28;19908;-84
2023/04/27 14:19:17;;;;;;;;;;;13.40;42.50;;;;;;5039861;28;19920;-84
2023/04/27 14:21:42;;;;;;;;;;;13.60;43.80;;;;;;5047884;28;20282;-84
2023/04/27 14:24:08;;;;;;;;;;;13.80;40.30;;;;;;5036392;28;19913;-84
2023/04/27 14:26:33;;;;;;;;;;;13.90;38.60;;;;;;5032191;28;19917;-84